sensor_id;sensor_type;location;lat;lon;timestamp;P1;durP1;ratioP1;P2;durP2;ratioP2
41653;SDS011;68687;52.030;7.110;2024-02-14T00:01:30;8.52;;;5.45;;
41653;SDS011;68687;52.030;7.110;2024-02-14T00:03:56;8.23;;;4.85;;
41653;SDS011;68687;52.030;7.110;2024-02-14T00:06:24;7.28;;;4.70;;
41653;SDS011;68687;52.030;7.110;2024-02-14T00:08:50;8.18;;;4.68;;
41653;SDS011;68687;52.030;7.110;2024-02-14T00:11:15;9.63;;;5.15;;
41653;SDS011;68687;52.030;7.110;2024-02-14T00:13:42;8.82;;;5.07;;
41653;SDS011;68687;52.030;7.110;2024-02-14T00:16:07;8.65;;;5.40;;
41653;SDS011;68687;52.030;7.110;2024-02-14T00:18:33;8.88;;;5.63;;
41653;SDS011;68687;52.030;7.110;2024-02-14T00:20:58;8.60;;;5.40;;
41653;SDS011;68687;52.030;7.110;2024-02-14T00:23:23;9.48;;;5.32;;
41653;SDS011;68687;52.030;7.110;2024-02-14T00:25:52;8.35;;;5.63;;
41653;SDS011;68687;52.030;7.110;2024-02-14T00:28:17;6.03;;;5.05;;
41653;SDS011;68687;52.030;7.110;2024-02-14T00:30:45;6.32;;;5.30;;
41653;SDS011;68687;52.030;7.110;2024-02-14T00:33:11;9.55;;;5.82;;
41653;SDS011;68687;52.030;7.110;2024-02-14T00:35:36;8.07;;;5.50;;
41653;SDS011;68687;52.030;7.110;2024-02-14T00:38:01;8.65;;;5.97;;
41653;SDS011;68687;52.030;7.110;2024-02-14T00:40:27;10.10;;;5.78;;
41653;SDS011;68687;52.030;7.110;2024-02-14T00:42:52;7.22;;;6.03;;
41653;SDS011;68687;52.030;7.110;2024-02-14T00:45:17;10.25;;;6.32;;
41653;SDS011;68687;52.030;7.110;2024-02-14T00:47:46;9.32;;;6.53;;
41653;SDS011;68687;52.030;7.110;2024-02-14T00:50:11;11.02;;;7.00;;
41653;SDS011;68687;52.030;7.110;2024-02-14T00:52:38;11.82;;;7.43;;
41653;SDS011;68687;52.030;7.110;2024-02-14T00:55:04;13.23;;;8.10;;
41653;SDS011;68687;52.030;7.110;2024-02-14T00:57:30;12.63;;;8.57;;
41653;SDS011;68687;52.030;7.110;2024-02-14T00:59:56;12.52;;;8.90;;
41653;SDS011;68687;52.030;7.110;2024-02-14T01:02:31;11.73;;;9.10;;
41653;SDS011;68687;52.030;7.110;2024-02-14T01:04:56;13.57;;;9.18;;
41653;SDS011;68687;52.030;7.110;2024-02-14T01:07:21;15.63;;;10.63;;
41653;SDS011;68687;52.030;7.110;2024-02-14T01:09:46;14.70;;;10.82;;
41653;SDS011;68687;52.030;7.110;2024-02-14T01:12:12;17.83;;;11.02;;
41653;SDS011;68687;52.030;7.110;2024-02-14T01:14:40;16.13;;;11.20;;
41653;SDS011;68687;52.030;7.110;2024-02-14T01:17:06;17.67;;;12.57;;
41653;SDS011;68687;52.030;7.110;2024-02-14T01:19:35;18.15;;;13.07;;
41653;SDS011;68687;52.030;7.110;2024-02-14T01:22:00;17.88;;;13.75;;
41653;SDS011;68687;52.030;7.110;2024-02-14T01:24:25;18.63;;;12.85;;
41653;SDS011;68687;52.030;7.110;2024-02-14T01:26:52;18.10;;;13.38;;
41653;SDS011;68687;52.030;7.110;2024-02-14T01:29:20;23.80;;;13.75;;
41653;SDS011;68687;52.030;7.110;2024-02-14T01:31:45;20.67;;;14.57;;
41653;SDS011;68687;52.030;7.110;2024-02-14T01:34:11;22.63;;;16.13;;
41653;SDS011;68687;52.030;7.110;2024-02-14T01:36:36;22.70;;;16.13;;
41653;SDS011;68687;52.030;7.110;2024-02-14T01:39:03;25.58;;;17.55;;
41653;SDS011;68687;52.030;7.110;2024-02-14T01:41:31;24.67;;;16.65;;
41653;SDS011;68687;52.030;7.110;2024-02-14T01:43:57;26.77;;;18.20;;
41653;SDS011;68687;52.030;7.110;2024-02-14T01:46:27;26.05;;;16.70;;
41653;SDS011;68687;52.030;7.110;2024-02-14T01:48:52;26.85;;;18.60;;
41653;SDS011;68687;52.030;7.110;2024-02-14T01:51:21;26.70;;;17.80;;
41653;SDS011;68687;52.030;7.110;2024-02-14T01:53:51;25.38;;;18.25;;
41653;SDS011;68687;52.030;7.110;2024-02-14T01:56:22;26.70;;;18.90;;
41653;SDS011;68687;52.030;7.110;2024-02-14T01:58:47;26.50;;;18.63;;
41653;SDS011;68687;52.030;7.110;2024-02-14T02:01:13;28.15;;;19.25;;
41653;SDS011;68687;52.030;7.110;2024-02-14T02:03:39;30.83;;;19.45;;
41653;SDS011;68687;52.030;7.110;2024-02-14T02:06:08;29.75;;;21.15;;
41653;SDS011;68687;52.030;7.110;2024-02-14T02:08:34;33.78;;;20.17;;
41653;SDS011;68687;52.030;7.110;2024-02-14T02:10:59;28.17;;;19.00;;
41653;SDS011;68687;52.030;7.110;2024-02-14T02:13:24;31.17;;;20.27;;
41653;SDS011;68687;52.030;7.110;2024-02-14T02:15:51;34.67;;;21.17;;
41653;SDS011;68687;52.030;7.110;2024-02-14T02:18:18;32.75;;;21.40;;
41653;SDS011;68687;52.030;7.110;2024-02-14T02:20:44;36.85;;;21.52;;
41653;SDS011;68687;52.030;7.110;2024-02-14T02:23:10;33.55;;;21.92;;
41653;SDS011;68687;52.030;7.110;2024-02-14T02:25:39;32.10;;;20.88;;
41653;SDS011;68687;52.030;7.110;2024-02-14T02:28:05;40.55;;;21.35;;
41653;SDS011;68687;52.030;7.110;2024-02-14T02:30:33;32.35;;;20.73;;
41653;SDS011;68687;52.030;7.110;2024-02-14T02:33:00;31.45;;;19.88;;
41653;SDS011;68687;52.030;7.110;2024-02-14T02:35:28;31.83;;;20.10;;
41653;SDS011;68687;52.030;7.110;2024-02-14T02:37:54;30.88;;;19.73;;
41653;SDS011;68687;52.030;7.110;2024-02-14T02:40:20;32.40;;;19.48;;
41653;SDS011;68687;52.030;7.110;2024-02-14T02:42:46;32.58;;;18.40;;
41653;SDS011;68687;52.030;7.110;2024-02-14T02:45:12;30.50;;;18.23;;
41653;SDS011;68687;52.030;7.110;2024-02-14T02:47:38;29.90;;;16.23;;
41653;SDS011;68687;52.030;7.110;2024-02-14T02:50:03;24.08;;;16.90;;
41653;SDS011;68687;52.030;7.110;2024-02-14T02:52:41;29.33;;;16.88;;
41653;SDS011;68687;52.030;7.110;2024-02-14T02:55:07;30.17;;;15.98;;
41653;SDS011;68687;52.030;7.110;2024-02-14T02:57:32;24.08;;;15.68;;
41653;SDS011;68687;52.030;7.110;2024-02-14T02:59:58;25.85;;;14.60;;
41653;SDS011;68687;52.030;7.110;2024-02-14T03:02:27;27.90;;;14.15;;
41653;SDS011;68687;52.030;7.110;2024-02-14T03:04:52;24.10;;;13.82;;
41653;SDS011;68687;52.030;7.110;2024-02-14T03:07:18;19.60;;;13.85;;
41653;SDS011;68687;52.030;7.110;2024-02-14T03:09:44;20.73;;;12.15;;
41653;SDS011;68687;52.030;7.110;2024-02-14T03:12:10;23.27;;;12.45;;
41653;SDS011;68687;52.030;7.110;2024-02-14T03:14:35;19.63;;;11.75;;
41653;SDS011;68687;52.030;7.110;2024-02-14T03:17:04;18.58;;;12.40;;
41653;SDS011;68687;52.030;7.110;2024-02-14T03:19:30;16.85;;;10.63;;
41653;SDS011;68687;52.030;7.110;2024-02-14T03:21:56;19.63;;;10.88;;
41653;SDS011;68687;52.030;7.110;2024-02-14T03:24:22;17.17;;;11.68;;
41653;SDS011;68687;52.030;7.110;2024-02-14T03:26:50;17.77;;;11.65;;
41653;SDS011;68687;52.030;7.110;2024-02-14T03:29:16;17.52;;;11.10;;
41653;SDS011;68687;52.030;7.110;2024-02-14T03:31:42;18.65;;;10.57;;
41653;SDS011;68687;52.030;7.110;2024-02-14T03:34:08;17.42;;;11.32;;
41653;SDS011;68687;52.030;7.110;2024-02-14T03:36:36;16.48;;;10.85;;
41653;SDS011;68687;52.030;7.110;2024-02-14T03:39:02;17.55;;;10.95;;
41653;SDS011;68687;52.030;7.110;2024-02-14T03:41:29;17.08;;;10.65;;
41653;SDS011;68687;52.030;7.110;2024-02-14T03:43:55;18.52;;;10.60;;
41653;SDS011;68687;52.030;7.110;2024-02-14T03:46:23;18.35;;;10.82;;
41653;SDS011;68687;52.030;7.110;2024-02-14T03:48:49;20.73;;;11.32;;
41653;SDS011;68687;52.030;7.110;2024-02-14T03:51:17;18.58;;;11.45;;
41653;SDS011;68687;52.030;7.110;2024-02-14T03:53:42;19.00;;;11.57;;
41653;SDS011;68687;52.030;7.110;2024-02-14T03:56:08;18.88;;;11.02;;
41653;SDS011;68687;52.030;7.110;2024-02-14T03:58:33;18.05;;;11.30;;
41653;SDS011;68687;52.030;7.110;2024-02-14T04:01:02;17.85;;;10.85;;
41653;SDS011;68687;52.030;7.110;2024-02-14T04:03:28;17.50;;;12.07;;
41653;SDS011;68687;52.030;7.110;2024-02-14T04:05:54;16.08;;;10.73;;
41653;SDS011;68687;52.030;7.110;2024-02-14T04:08:25;19.08;;;12.05;;
41653;SDS011;68687;52.030;7.110;2024-02-14T04:10:51;19.02;;;11.77;;
41653;SDS011;68687;52.030;7.110;2024-02-14T04:13:19;15.93;;;11.63;;
41653;SDS011;68687;52.030;7.110;2024-02-14T04:15:44;17.88;;;11.27;;
41653;SDS011;68687;52.030;7.110;2024-02-14T04:18:10;22.75;;;11.98;;
41653;SDS011;68687;52.030;7.110;2024-02-14T04:20:36;21.75;;;11.95;;
41653;SDS011;68687;52.030;7.110;2024-02-14T04:23:01;19.92;;;12.20;;
41653;SDS011;68687;52.030;7.110;2024-02-14T04:25:26;18.33;;;12.07;;
41653;SDS011;68687;52.030;7.110;2024-02-14T04:27:52;18.95;;;12.90;;
41653;SDS011;68687;52.030;7.110;2024-02-14T04:30:17;19.55;;;12.55;;
41653;SDS011;68687;52.030;7.110;2024-02-14T04:32:42;19.95;;;12.48;;
41653;SDS011;68687;52.030;7.110;2024-02-14T04:35:08;18.95;;;13.50;;
41653;SDS011;68687;52.030;7.110;2024-02-14T04:37:34;21.27;;;13.68;;
41653;SDS011;68687;52.030;7.110;2024-02-14T04:39:59;19.33;;;13.35;;
41653;SDS011;68687;52.030;7.110;2024-02-14T04:42:25;19.92;;;13.57;;
41653;SDS011;68687;52.030;7.110;2024-02-14T04:44:50;22.23;;;13.73;;
41653;SDS011;68687;52.030;7.110;2024-02-14T04:47:15;23.55;;;13.15;;
41653;SDS011;68687;52.030;7.110;2024-02-14T04:49:41;19.77;;;12.20;;
41653;SDS011;68687;52.030;7.110;2024-02-14T04:52:06;25.45;;;12.70;;
41653;SDS011;68687;52.030;7.110;2024-02-14T04:54:32;17.67;;;11.93;;
41653;SDS011;68687;52.030;7.110;2024-02-14T04:56:58;16.75;;;10.52;;
41653;SDS011;68687;52.030;7.110;2024-02-14T04:59:23;20.48;;;11.65;;
41653;SDS011;68687;52.030;7.110;2024-02-14T05:01:48;16.15;;;10.50;;
41653;SDS011;68687;52.030;7.110;2024-02-14T05:04:15;20.33;;;11.57;;
41653;SDS011;68687;52.030;7.110;2024-02-14T05:06:41;18.52;;;11.63;;
41653;SDS011;68687;52.030;7.110;2024-02-14T05:09:07;21.48;;;10.98;;
41653;SDS011;68687;52.030;7.110;2024-02-14T05:11:35;18.35;;;11.45;;
41653;SDS011;68687;52.030;7.110;2024-02-14T05:14:01;21.67;;;10.82;;
41653;SDS011;68687;52.030;7.110;2024-02-14T05:16:27;19.65;;;11.68;;
41653;SDS011;68687;52.030;7.110;2024-02-14T05:18:52;18.25;;;11.05;;
41653;SDS011;68687;52.030;7.110;2024-02-14T05:21:19;16.75;;;11.40;;
41653;SDS011;68687;52.030;7.110;2024-02-14T05:23:45;26.13;;;11.27;;
41653;SDS011;68687;52.030;7.110;2024-02-14T05:26:10;16.73;;;10.77;;
41653;SDS011;68687;52.030;7.110;2024-02-14T05:28:36;19.42;;;12.18;;
41653;SDS011;68687;52.030;7.110;2024-02-14T05:31:01;19.98;;;11.75;;
41653;SDS011;68687;52.030;7.110;2024-02-14T05:33:28;19.92;;;12.38;;
41653;SDS011;68687;52.030;7.110;2024-02-14T05:35:53;18.10;;;11.82;;
41653;SDS011;68687;52.030;7.110;2024-02-14T05:38:19;20.35;;;11.57;;
41653;SDS011;68687;52.030;7.110;2024-02-14T05:40:48;21.10;;;12.50;;
41653;SDS011;68687;52.030;7.110;2024-02-14T05:43:14;21.65;;;12.70;;
41653;SDS011;68687;52.030;7.110;2024-02-14T05:45:43;22.70;;;12.07;;
41653;SDS011;68687;52.030;7.110;2024-02-14T05:48:08;19.27;;;11.85;;
41653;SDS011;68687;52.030;7.110;2024-02-14T05:50:34;24.17;;;12.75;;
41653;SDS011;68687;52.030;7.110;2024-02-14T05:52:59;22.77;;;12.68;;
41653;SDS011;68687;52.030;7.110;2024-02-14T05:55:25;27.05;;;13.25;;
41653;SDS011;68687;52.030;7.110;2024-02-14T05:57:51;21.35;;;13.18;;
41653;SDS011;68687;52.030;7.110;2024-02-14T06:00:20;22.23;;;12.88;;
41653;SDS011;68687;52.030;7.110;2024-02-14T06:02:49;23.17;;;13.30;;
41653;SDS011;68687;52.030;7.110;2024-02-14T06:05:14;21.85;;;12.93;;
41653;SDS011;68687;52.030;7.110;2024-02-14T06:07:40;24.65;;;13.73;;
41653;SDS011;68687;52.030;7.110;2024-02-14T06:10:07;24.40;;;14.25;;
41653;SDS011;68687;52.030;7.110;2024-02-14T06:12:33;21.60;;;13.55;;
41653;SDS011;68687;52.030;7.110;2024-02-14T06:15:02;22.67;;;13.20;;
41653;SDS011;68687;52.030;7.110;2024-02-14T06:17:27;20.45;;;13.52;;
41653;SDS011;68687;52.030;7.110;2024-02-14T06:19:53;25.27;;;13.98;;
41653;SDS011;68687;52.030;7.110;2024-02-14T06:22:19;22.92;;;13.32;;
41653;SDS011;68687;52.030;7.110;2024-02-14T06:24:45;20.88;;;13.15;;
41653;SDS011;68687;52.030;7.110;2024-02-14T06:27:10;22.20;;;14.85;;
41653;SDS011;68687;52.030;7.110;2024-02-14T06:29:36;20.98;;;14.48;;
41653;SDS011;68687;52.030;7.110;2024-02-14T06:32:01;23.15;;;14.25;;
41653;SDS011;68687;52.030;7.110;2024-02-14T06:34:30;22.50;;;14.05;;
41653;SDS011;68687;52.030;7.110;2024-02-14T06:36:55;23.50;;;14.07;;
41653;SDS011;68687;52.030;7.110;2024-02-14T06:39:20;23.70;;;13.73;;
41653;SDS011;68687;52.030;7.110;2024-02-14T06:41:46;29.60;;;14.52;;
41653;SDS011;68687;52.030;7.110;2024-02-14T06:44:15;21.80;;;13.45;;
41653;SDS011;68687;52.030;7.110;2024-02-14T06:46:40;22.25;;;14.07;;
41653;SDS011;68687;52.030;7.110;2024-02-14T06:49:09;24.52;;;13.13;;
41653;SDS011;68687;52.030;7.110;2024-02-14T06:51:35;22.65;;;13.65;;
41653;SDS011;68687;52.030;7.110;2024-02-14T06:54:09;17.80;;;12.32;;
41653;SDS011;68687;52.030;7.110;2024-02-14T06:56:35;22.25;;;11.82;;
41653;SDS011;68687;52.030;7.110;2024-02-14T06:59:04;20.90;;;12.18;;
41653;SDS011;68687;52.030;7.110;2024-02-14T07:01:38;25.30;;;12.70;;
41653;SDS011;68687;52.030;7.110;2024-02-14T07:04:03;18.55;;;12.05;;
41653;SDS011;68687;52.030;7.110;2024-02-14T07:06:29;21.92;;;12.27;;
41653;SDS011;68687;52.030;7.110;2024-02-14T07:08:58;17.27;;;11.60;;
41653;SDS011;68687;52.030;7.110;2024-02-14T07:11:23;20.13;;;13.50;;
41653;SDS011;68687;52.030;7.110;2024-02-14T07:13:49;22.40;;;12.52;;
41653;SDS011;68687;52.030;7.110;2024-02-14T07:16:14;18.60;;;11.77;;
41653;SDS011;68687;52.030;7.110;2024-02-14T07:18:39;20.10;;;12.90;;
41653;SDS011;68687;52.030;7.110;2024-02-14T07:21:05;18.75;;;12.05;;
41653;SDS011;68687;52.030;7.110;2024-02-14T07:23:30;18.25;;;12.65;;
41653;SDS011;68687;52.030;7.110;2024-02-14T07:25:56;17.73;;;12.27;;
41653;SDS011;68687;52.030;7.110;2024-02-14T07:28:21;18.88;;;11.65;;
41653;SDS011;68687;52.030;7.110;2024-02-14T07:30:53;18.10;;;11.82;;
41653;SDS011;68687;52.030;7.110;2024-02-14T07:33:18;19.38;;;12.55;;
41653;SDS011;68687;52.030;7.110;2024-02-14T07:35:43;23.75;;;12.80;;
41653;SDS011;68687;52.030;7.110;2024-02-14T07:38:09;21.60;;;12.13;;
41653;SDS011;68687;52.030;7.110;2024-02-14T07:40:34;19.00;;;12.38;;
41653;SDS011;68687;52.030;7.110;2024-02-14T07:43:00;16.77;;;11.82;;
41653;SDS011;68687;52.030;7.110;2024-02-14T07:45:25;19.52;;;13.05;;
41653;SDS011;68687;52.030;7.110;2024-02-14T07:47:51;16.08;;;11.43;;
41653;SDS011;68687;52.030;7.110;2024-02-14T07:50:17;19.65;;;12.00;;
41653;SDS011;68687;52.030;7.110;2024-02-14T07:52:43;18.60;;;11.27;;
41653;SDS011;68687;52.030;7.110;2024-02-14T07:55:09;17.35;;;11.30;;
41653;SDS011;68687;52.030;7.110;2024-02-14T07:57:37;15.45;;;10.88;;
41653;SDS011;68687;52.030;7.110;2024-02-14T08:00:03;17.85;;;10.93;;
41653;SDS011;68687;52.030;7.110;2024-02-14T08:02:29;16.90;;;10.48;;
41653;SDS011;68687;52.030;7.110;2024-02-14T08:04:54;17.52;;;12.40;;
41653;SDS011;68687;52.030;7.110;2024-02-14T08:07:20;18.55;;;12.68;;
41653;SDS011;68687;52.030;7.110;2024-02-14T08:09:45;18.10;;;11.48;;
41653;SDS011;68687;52.030;7.110;2024-02-14T08:12:10;14.40;;;10.77;;
41653;SDS011;68687;52.030;7.110;2024-02-14T08:14:36;19.20;;;11.80;;
41653;SDS011;68687;52.030;7.110;2024-02-14T08:17:01;19.52;;;12.85;;
41653;SDS011;68687;52.030;7.110;2024-02-14T08:19:27;22.52;;;14.60;;
41653;SDS011;68687;52.030;7.110;2024-02-14T08:21:52;19.55;;;12.73;;
41653;SDS011;68687;52.030;7.110;2024-02-14T08:24:22;32.63;;;21.15;;
41653;SDS011;68687;52.030;7.110;2024-02-14T08:26:52;26.95;;;16.20;;
41653;SDS011;68687;52.030;7.110;2024-02-14T08:29:18;31.15;;;17.30;;
41653;SDS011;68687;52.030;7.110;2024-02-14T08:31:43;25.90;;;16.17;;
41653;SDS011;68687;52.030;7.110;2024-02-14T08:34:12;25.33;;;15.65;;
41653;SDS011;68687;52.030;7.110;2024-02-14T08:36:40;27.52;;;16.88;;
41653;SDS011;68687;52.030;7.110;2024-02-14T08:39:09;26.60;;;16.65;;
41653;SDS011;68687;52.030;7.110;2024-02-14T08:41:35;30.95;;;17.08;;
41653;SDS011;68687;52.030;7.110;2024-02-14T08:44:08;38.35;;;23.05;;
41653;SDS011;68687;52.030;7.110;2024-02-14T08:46:33;45.17;;;25.13;;
41653;SDS011;68687;52.030;7.110;2024-02-14T08:49:02;44.47;;;25.55;;
41653;SDS011;68687;52.030;7.110;2024-02-14T08:51:30;33.58;;;17.30;;
41653;SDS011;68687;52.030;7.110;2024-02-14T08:53:55;38.05;;;19.02;;
41653;SDS011;68687;52.030;7.110;2024-02-14T08:56:24;33.25;;;19.13;;
41653;SDS011;68687;52.030;7.110;2024-02-14T08:58:50;32.47;;;18.90;;
41653;SDS011;68687;52.030;7.110;2024-02-14T09:01:15;35.17;;;19.35;;
41653;SDS011;68687;52.030;7.110;2024-02-14T09:03:41;28.50;;;18.65;;
41653;SDS011;68687;52.030;7.110;2024-02-14T09:06:15;31.60;;;18.00;;
41653;SDS011;68687;52.030;7.110;2024-02-14T09:08:48;32.67;;;17.90;;
41653;SDS011;68687;52.030;7.110;2024-02-14T09:11:20;36.40;;;17.65;;
41653;SDS011;68687;52.030;7.110;2024-02-14T09:13:47;29.92;;;18.40;;
41653;SDS011;68687;52.030;7.110;2024-02-14T09:16:14;36.70;;;19.88;;
41653;SDS011;68687;52.030;7.110;2024-02-14T09:18:40;26.98;;;17.58;;
41653;SDS011;68687;52.030;7.110;2024-02-14T09:21:06;33.55;;;18.30;;
41653;SDS011;68687;52.030;7.110;2024-02-14T09:23:31;40.47;;;18.95;;
41653;SDS011;68687;52.030;7.110;2024-02-14T09:25:57;31.95;;;19.77;;
41653;SDS011;68687;52.030;7.110;2024-02-14T09:28:23;35.08;;;21.42;;
41653;SDS011;68687;52.030;7.110;2024-02-14T09:30:53;32.95;;;18.30;;
41653;SDS011;68687;52.030;7.110;2024-02-14T09:33:19;30.05;;;18.42;;
41653;SDS011;68687;52.030;7.110;2024-02-14T09:35:45;35.88;;;17.40;;
41653;SDS011;68687;52.030;7.110;2024-02-14T09:38:12;27.48;;;17.13;;
41653;SDS011;68687;52.030;7.110;2024-02-14T09:40:40;30.58;;;18.20;;
41653;SDS011;68687;52.030;7.110;2024-02-14T09:43:24;35.15;;;18.38;;
41653;SDS011;68687;52.030;7.110;2024-02-14T09:46:00;33.28;;;17.92;;
41653;SDS011;68687;52.030;7.110;2024-02-14T09:48:31;29.95;;;16.70;;
41653;SDS011;68687;52.030;7.110;2024-02-14T09:51:00;26.48;;;16.05;;
41653;SDS011;68687;52.030;7.110;2024-02-14T09:53:30;29.20;;;16.50;;
41653;SDS011;68687;52.030;7.110;2024-02-14T09:56:01;28.75;;;15.40;;
41653;SDS011;68687;52.030;7.110;2024-02-14T09:58:28;26.42;;;14.60;;
41653;SDS011;68687;52.030;7.110;2024-02-14T10:00:54;27.60;;;14.75;;
41653;SDS011;68687;52.030;7.110;2024-02-14T10:03:19;26.17;;;14.88;;
41653;SDS011;68687;52.030;7.110;2024-02-14T10:05:45;24.27;;;14.68;;
41653;SDS011;68687;52.030;7.110;2024-02-14T10:08:10;23.98;;;13.98;;
41653;SDS011;68687;52.030;7.110;2024-02-14T10:10:42;24.05;;;14.15;;
41653;SDS011;68687;52.030;7.110;2024-02-14T10:13:07;27.60;;;14.35;;
41653;SDS011;68687;52.030;7.110;2024-02-14T10:15:33;22.77;;;13.82;;
41653;SDS011;68687;52.030;7.110;2024-02-14T10:17:59;25.90;;;14.50;;
41653;SDS011;68687;52.030;7.110;2024-02-14T10:20:25;21.83;;;14.40;;
41653;SDS011;68687;52.030;7.110;2024-02-14T10:22:51;24.90;;;15.43;;
41653;SDS011;68687;52.030;7.110;2024-02-14T10:25:17;21.42;;;13.02;;
41653;SDS011;68687;52.030;7.110;2024-02-14T10:27:44;22.52;;;13.27;;
41653;SDS011;68687;52.030;7.110;2024-02-14T10:30:11;29.17;;;13.88;;
41653;SDS011;68687;52.030;7.110;2024-02-14T10:32:37;50.13;;;16.15;;
41653;SDS011;68687;52.030;7.110;2024-02-14T10:35:11;22.00;;;13.23;;
41653;SDS011;68687;52.030;7.110;2024-02-14T10:37:38;22.77;;;12.88;;
41653;SDS011;68687;52.030;7.110;2024-02-14T10:40:04;25.15;;;13.38;;
41653;SDS011;68687;52.030;7.110;2024-02-14T10:42:31;23.92;;;12.90;;
41653;SDS011;68687;52.030;7.110;2024-02-14T10:44:56;32.38;;;15.65;;
41653;SDS011;68687;52.030;7.110;2024-02-14T10:47:24;26.55;;;15.15;;
41653;SDS011;68687;52.030;7.110;2024-02-14T10:49:54;27.23;;;16.23;;
41653;SDS011;68687;52.030;7.110;2024-02-14T10:52:32;24.40;;;14.90;;
41653;SDS011;68687;52.030;7.110;2024-02-14T10:54:59;24.92;;;14.93;;
41653;SDS011;68687;52.030;7.110;2024-02-14T10:57:26;28.67;;;16.55;;
41653;SDS011;68687;52.030;7.110;2024-02-14T10:59:54;32.10;;;17.00;;
41653;SDS011;68687;52.030;7.110;2024-02-14T11:02:23;25.25;;;14.00;;
41653;SDS011;68687;52.030;7.110;2024-02-14T11:04:49;21.92;;;13.20;;
41653;SDS011;68687;52.030;7.110;2024-02-14T11:07:21;26.77;;;14.75;;
41653;SDS011;68687;52.030;7.110;2024-02-14T11:10:12;24.52;;;14.30;;
41653;SDS011;68687;52.030;7.110;2024-02-14T11:12:38;26.48;;;15.35;;
41653;SDS011;68687;52.030;7.110;2024-02-14T11:15:22;32.80;;;18.10;;
41653;SDS011;68687;52.030;7.110;2024-02-14T11:18:02;32.65;;;16.75;;
41653;SDS011;68687;52.030;7.110;2024-02-14T11:20:32;32.58;;;18.70;;
41653;SDS011;68687;52.030;7.110;2024-02-14T11:23:02;27.63;;;17.10;;
41653;SDS011;68687;52.030;7.110;2024-02-14T11:25:33;24.95;;;15.63;;
41653;SDS011;68687;52.030;7.110;2024-02-14T11:27:59;30.60;;;15.63;;
41653;SDS011;68687;52.030;7.110;2024-02-14T11:30:29;25.70;;;14.98;;
41653;SDS011;68687;52.030;7.110;2024-02-14T11:33:06;27.23;;;14.93;;
41653;SDS011;68687;52.030;7.110;2024-02-14T11:38:20;25.52;;;14.70;;
41653;SDS011;68687;52.030;7.110;2024-02-14T11:40:47;49.83;;;20.52;;
41653;SDS011;68687;52.030;7.110;2024-02-14T11:43:14;28.55;;;15.90;;
41653;SDS011;68687;52.030;7.110;2024-02-14T11:45:43;24.75;;;15.15;;
41653;SDS011;68687;52.030;7.110;2024-02-14T11:48:14;24.25;;;13.95;;
41653;SDS011;68687;52.030;7.110;2024-02-14T11:50:42;26.63;;;13.52;;
41653;SDS011;68687;52.030;7.110;2024-02-14T11:53:15;21.05;;;13.15;;
41653;SDS011;68687;52.030;7.110;2024-02-14T11:55:46;25.60;;;17.15;;
41653;SDS011;68687;52.030;7.110;2024-02-14T11:58:12;23.23;;;12.50;;
41653;SDS011;68687;52.030;7.110;2024-02-14T12:00:38;20.20;;;11.00;;
41653;SDS011;68687;52.030;7.110;2024-02-14T12:03:06;23.08;;;11.45;;
41653;SDS011;68687;52.030;7.110;2024-02-14T12:05:33;23.33;;;12.23;;
41653;SDS011;68687;52.030;7.110;2024-02-14T12:07:59;24.05;;;12.02;;
41653;SDS011;68687;52.030;7.110;2024-02-14T12:10:30;19.58;;;11.85;;
41653;SDS011;68687;52.030;7.110;2024-02-14T12:12:56;21.45;;;11.60;;
41653;SDS011;68687;52.030;7.110;2024-02-14T12:15:28;20.48;;;11.30;;
41653;SDS011;68687;52.030;7.110;2024-02-14T12:41:18;16.63;;;10.07;;
41653;SDS011;68687;52.030;7.110;2024-02-14T12:43:44;12.43;;;9.05;;
41653;SDS011;68687;52.030;7.110;2024-02-14T12:46:09;17.73;;;9.70;;
41653;SDS011;68687;52.030;7.110;2024-02-14T12:48:38;16.50;;;9.13;;
41653;SDS011;68687;52.030;7.110;2024-02-14T12:51:06;15.57;;;8.90;;
41653;SDS011;68687;52.030;7.110;2024-02-14T12:53:32;17.13;;;9.02;;
41653;SDS011;68687;52.030;7.110;2024-02-14T12:55:57;17.00;;;9.27;;
41653;SDS011;68687;52.030;7.110;2024-02-14T12:58:23;14.15;;;8.13;;
41653;SDS011;68687;52.030;7.110;2024-02-14T13:00:49;17.65;;;9.23;;
41653;SDS011;68687;52.030;7.110;2024-02-14T13:03:14;18.35;;;9.48;;
41653;SDS011;68687;52.030;7.110;2024-02-14T13:05:39;15.68;;;10.07;;
41653;SDS011;68687;52.030;7.110;2024-02-14T13:08:08;15.10;;;8.27;;
41653;SDS011;68687;52.030;7.110;2024-02-14T13:10:39;15.80;;;8.40;;
41653;SDS011;68687;52.030;7.110;2024-02-14T13:13:07;18.27;;;9.57;;
41653;SDS011;68687;52.030;7.110;2024-02-14T13:15:33;14.68;;;8.70;;
41653;SDS011;68687;52.030;7.110;2024-02-14T13:17:58;14.07;;;8.40;;
41653;SDS011;68687;52.030;7.110;2024-02-14T13:20:24;17.42;;;8.23;;
41653;SDS011;68687;52.030;7.110;2024-02-14T13:22:50;18.60;;;10.00;;
41653;SDS011;68687;52.030;7.110;2024-02-14T13:25:15;15.98;;;10.25;;
41653;SDS011;68687;52.030;7.110;2024-02-14T13:27:41;14.35;;;8.55;;
41653;SDS011;68687;52.030;7.110;2024-02-14T13:30:06;13.10;;;7.68;;
41653;SDS011;68687;52.030;7.110;2024-02-14T13:32:32;13.80;;;7.55;;
41653;SDS011;68687;52.030;7.110;2024-02-14T13:34:57;14.68;;;8.88;;
41653;SDS011;68687;52.030;7.110;2024-02-14T13:37:23;16.33;;;7.63;;
41653;SDS011;68687;52.030;7.110;2024-02-14T13:39:49;10.23;;;7.53;;
41653;SDS011;68687;52.030;7.110;2024-02-14T13:42:15;14.07;;;8.25;;
41653;SDS011;68687;52.030;7.110;2024-02-14T13:44:40;10.55;;;8.18;;
41653;SDS011;68687;52.030;7.110;2024-02-14T13:47:06;15.35;;;9.32;;
41653;SDS011;68687;52.030;7.110;2024-02-14T13:49:31;10.30;;;7.53;;
41653;SDS011;68687;52.030;7.110;2024-02-14T13:52:00;11.18;;;6.82;;
41653;SDS011;68687;52.030;7.110;2024-02-14T13:54:25;13.15;;;7.75;;
41653;SDS011;68687;52.030;7.110;2024-02-14T13:56:50;12.30;;;7.20;;
41653;SDS011;68687;52.030;7.110;2024-02-14T13:59:17;9.98;;;6.80;;
41653;SDS011;68687;52.030;7.110;2024-02-14T14:01:46;9.48;;;6.95;;
41653;SDS011;68687;52.030;7.110;2024-02-14T14:04:12;11.18;;;7.05;;
41653;SDS011;68687;52.030;7.110;2024-02-14T14:06:37;10.55;;;6.30;;
41653;SDS011;68687;52.030;7.110;2024-02-14T14:09:04;9.70;;;6.53;;
41653;SDS011;68687;52.030;7.110;2024-02-14T14:11:36;7.47;;;5.65;;
41653;SDS011;68687;52.030;7.110;2024-02-14T14:14:03;11.77;;;6.82;;
41653;SDS011;68687;52.030;7.110;2024-02-14T14:16:28;12.00;;;6.53;;
41653;SDS011;68687;52.030;7.110;2024-02-14T14:18:53;9.27;;;6.07;;
41653;SDS011;68687;52.030;7.110;2024-02-14T14:21:18;8.20;;;5.82;;
41653;SDS011;68687;52.030;7.110;2024-02-14T14:23:44;9.68;;;6.30;;
41653;SDS011;68687;52.030;7.110;2024-02-14T14:26:09;10.60;;;6.47;;
41653;SDS011;68687;52.030;7.110;2024-02-14T14:28:35;9.50;;;7.45;;
41653;SDS011;68687;52.030;7.110;2024-02-14T14:31:00;13.77;;;8.75;;
41653;SDS011;68687;52.030;7.110;2024-02-14T14:33:29;12.77;;;7.93;;
41653;SDS011;68687;52.030;7.110;2024-02-14T14:35:55;10.75;;;7.15;;
41653;SDS011;68687;52.030;7.110;2024-02-14T14:38:27;8.80;;;6.93;;
41653;SDS011;68687;52.030;7.110;2024-02-14T14:40:55;12.77;;;8.10;;
41653;SDS011;68687;52.030;7.110;2024-02-14T14:43:21;9.88;;;7.38;;
41653;SDS011;68687;52.030;7.110;2024-02-14T14:45:47;11.32;;;7.75;;
41653;SDS011;68687;52.030;7.110;2024-02-14T14:48:12;10.25;;;7.40;;
41653;SDS011;68687;52.030;7.110;2024-02-14T14:50:40;11.32;;;8.38;;